createdAt,value
2019-02-09T00:00:39.662Z,957.95
2019-02-09T00:01:39.594Z,957.93
2019-02-09T00:02:39.534Z,957.95
2019-02-09T00:03:39.468Z,957.91
2019-02-09T00:04:39.388Z,957.93
2019-02-09T00:05:39.322Z,957.95
2019-02-09T00:06:39.252Z,957.97
2019-02-09T00:07:39.179Z,957.98
2019-02-09T00:08:39.122Z,957.97
2019-02-09T00:09:39.050Z,958.01
2019-02-09T00:10:38.982Z,957.99
2019-02-09T00:11:38.916Z,958.02
2019-02-09T00:12:38.863Z,958.01
2019-02-09T00:13:38.788Z,958.02
2019-02-09T00:14:38.707Z,958.02
2019-02-09T00:15:38.640Z,957.96
2019-02-09T00:16:38.573Z,958.00
2019-02-09T00:17:38.512Z,957.97
2019-02-09T00:18:38.432Z,958.05
2019-02-09T00:19:38.370Z,958.08
2019-02-09T00:20:38.314Z,958.09
2019-02-09T00:21:38.233Z,958.15
2019-02-09T00:22:38.164Z,958.15
2019-02-09T00:23:38.100Z,958.16
2019-02-09T00:24:38.031Z,958.13
2019-02-09T00:25:37.959Z,958.10
2019-02-09T00:26:37.892Z,958.17
2019-02-09T00:27:37.827Z,958.14
2019-02-09T00:28:37.761Z,958.11
2019-02-09T00:29:45.064Z,958.08
2019-02-09T00:30:37.618Z,958.07
2019-02-09T00:31:37.545Z,958.07
2019-02-09T00:32:37.489Z,958.10
2019-02-09T00:33:37.411Z,958.08
2019-02-09T00:34:37.346Z,958.07
2019-02-09T00:35:37.278Z,958.05
2019-02-09T00:36:37.210Z,958.01
2019-02-09T00:37:37.138Z,958.01
2019-02-09T00:38:37.073Z,958.04
2019-02-09T00:39:37.913Z,958.06
2019-02-09T00:40:36.936Z,958.14
2019-02-09T00:41:36.875Z,958.15
2019-02-09T00:42:36.809Z,958.19
2019-02-09T00:43:36.742Z,958.22
2019-02-09T00:44:36.664Z,958.21
2019-02-09T00:45:36.595Z,958.14
2019-02-09T00:46:36.531Z,958.07
2019-02-09T00:47:36.468Z,958.03
2019-02-09T00:48:36.390Z,958.04
2019-02-09T00:49:36.322Z,957.99
2019-02-09T00:50:36.257Z,957.97
2019-02-09T00:51:36.188Z,957.99
2019-02-09T00:52:36.115Z,957.96
2019-02-09T00:53:36.048Z,957.89
2019-02-09T00:54:35.980Z,957.93
2019-02-09T00:55:35.914Z,957.84
2019-02-09T00:56:35.852Z,957.85
2019-02-09T00:57:35.788Z,957.77
2019-02-09T00:58:35.717Z,957.76
2019-02-09T00:59:35.641Z,957.73
2019-02-09T01:00:35.574Z,957.72
2019-02-09T01:01:35.506Z,957.75
2019-02-09T01:02:35.442Z,957.80
2019-02-09T01:03:35.366Z,957.77
2019-02-09T01:04:35.308Z,957.74
2019-02-09T01:05:35.233Z,957.68
2019-02-09T01:06:35.167Z,957.64
2019-02-09T01:07:35.093Z,957.69
2019-02-09T01:08:35.027Z,957.68
2019-02-09T01:09:34.960Z,957.69
2019-02-09T01:10:34.890Z,957.64
2019-02-09T01:11:34.830Z,957.65
2019-02-09T01:12:34.755Z,957.64
2019-02-09T01:13:34.688Z,957.70
2019-02-09T01:14:34.621Z,957.72
2019-02-09T01:15:34.550Z,957.73
2019-02-09T01:16:34.483Z,957.71
2019-02-09T01:17:34.414Z,957.71
2019-02-09T01:18:34.342Z,957.70
2019-02-09T01:19:34.275Z,957.67
2019-02-09T01:20:34.208Z,957.67
2019-02-09T01:21:34.148Z,957.65
2019-02-09T01:22:34.068Z,957.65
2019-02-09T01:23:34.011Z,957.61
2019-02-09T01:24:33.937Z,957.59
2019-02-09T01:25:33.869Z,957.60
2019-02-09T01:26:33.795Z,957.58
2019-02-09T01:27:33.729Z,957.60
2019-02-09T01:28:33.670Z,957.60
2019-02-09T01:29:33.593Z,957.58
2019-02-09T01:30:33.527Z,957.62
2019-02-09T01:31:33.453Z,957.57
2019-02-09T01:32:33.396Z,957.56
2019-02-09T01:33:33.319Z,957.58
2019-02-09T01:34:33.253Z,957.59
2019-02-09T01:35:33.234Z,957.51
2019-02-09T01:36:33.123Z,957.56
2019-02-09T01:37:33.044Z,957.56
2019-02-09T01:38:32.978Z,957.54
2019-02-09T01:39:32.913Z,957.52
2019-02-09T01:40:32.846Z,957.57
2019-02-09T01:41:32.770Z,957.54
2019-02-09T01:42:32.706Z,957.52
2019-02-09T01:43:32.637Z,957.54
2019-02-09T01:44:32.570Z,957.51
2019-02-09T01:45:32.506Z,957.48
2019-02-09T01:46:32.442Z,957.45
2019-02-09T01:47:32.376Z,957.48
2019-02-09T01:48:32.296Z,957.48
2019-02-09T01:49:32.228Z,957.48
2019-02-09T01:50:32.158Z,957.45
2019-02-09T01:51:32.091Z,957.46
2019-02-09T01:52:32.025Z,957.38
2019-02-09T01:53:31.952Z,957.40
2019-02-09T01:54:31.884Z,957.34
2019-02-09T01:55:31.819Z,957.37
2019-02-09T01:56:31.750Z,957.39
2019-02-09T01:57:31.681Z,957.36
2019-02-09T01:58:31.613Z,957.37
2019-02-09T01:59:31.540Z,957.41
2019-02-09T02:00:31.496Z,957.40
2019-02-09T02:01:31.407Z,957.41
2019-02-09T02:02:31.341Z,957.38
2019-02-09T02:03:31.314Z,957.37
2019-02-09T02:04:31.203Z,957.35
2019-02-09T02:05:31.138Z,957.33
2019-02-09T02:06:31.080Z,957.36
2019-02-09T02:07:30.997Z,957.29
2019-02-09T02:08:30.929Z,957.33
2019-02-09T02:09:30.862Z,957.30
2019-02-09T02:10:30.799Z,957.31
2019-02-09T02:11:30.719Z,957.30
2019-02-09T02:12:30.657Z,957.25
2019-02-09T02:13:30.587Z,957.27
2019-02-09T02:14:30.543Z,957.20
2019-02-09T02:15:30.445Z,957.22
2019-02-09T02:16:30.381Z,957.21
2019-02-09T02:17:30.314Z,957.23
2019-02-09T02:18:30.244Z,957.21
2019-02-09T02:19:30.178Z,957.18
2019-02-09T02:20:30.114Z,957.20
2019-02-09T02:21:30.062Z,957.21
2019-02-09T02:22:29.971Z,957.18
2019-02-09T02:23:29.902Z,957.16
2019-02-09T02:24:29.835Z,957.19
2019-02-09T02:25:29.783Z,957.16
2019-02-09T02:26:29.696Z,957.20
2019-02-09T02:27:29.628Z,957.20
2019-02-09T02:28:29.562Z,957.18
2019-02-09T02:29:29.493Z,957.18
2019-02-09T02:30:29.439Z,957.20
2019-02-09T02:31:29.381Z,957.23
2019-02-09T02:32:29.287Z,957.20
2019-02-09T02:33:29.219Z,957.16
2019-02-09T02:34:29.153Z,957.15
2019-02-09T02:35:29.083Z,957.09
2019-02-09T02:36:29.024Z,957.13
2019-02-09T02:37:28.946Z,957.20
2019-02-09T02:38:28.893Z,957.17
2019-02-09T02:39:28.812Z,957.16
2019-02-09T02:40:28.744Z,957.10
2019-02-09T02:41:28.669Z,957.16
2019-02-09T02:42:28.602Z,957.11
2019-02-09T02:43:28.544Z,957.05
2019-02-09T02:44:28.466Z,957.07
2019-02-09T02:45:28.396Z,957.11
2019-02-09T02:46:28.327Z,957.02
2019-02-09T02:47:28.262Z,957.09
2019-02-09T02:48:28.203Z,957.05
2019-02-09T02:49:28.123Z,957.08
2019-02-09T02:50:28.056Z,957.11
2019-02-09T02:51:27.990Z,957.02
2019-02-09T02:52:27.924Z,957.07
2019-02-09T02:53:27.856Z,957.10
2019-02-09T02:54:27.787Z,957.05
2019-02-09T02:55:27.724Z,957.09
2019-02-09T02:56:27.648Z,957.03
2019-02-09T02:57:27.580Z,957.11
2019-02-09T02:58:27.513Z,957.07
2019-02-09T02:59:27.457Z,957.05
2019-02-09T03:00:32.058Z,957.05
2019-02-09T03:01:27.307Z,957.00
2019-02-09T03:02:27.244Z,956.98
2019-02-09T03:03:27.179Z,956.98
2019-02-09T03:04:27.099Z,956.92
2019-02-09T03:05:27.034Z,956.89
2019-02-09T03:06:26.965Z,956.83
2019-02-09T03:07:26.895Z,956.84
2019-02-09T03:08:26.841Z,956.78
2019-02-09T03:09:26.763Z,956.75
2019-02-09T03:10:26.698Z,956.81
2019-02-09T03:11:26.623Z,956.79
2019-02-09T03:12:26.559Z,956.74
2019-02-09T03:13:26.496Z,956.72
2019-02-09T03:14:26.421Z,956.65
2019-02-09T03:15:26.355Z,956.61
2019-02-09T03:16:26.283Z,956.57
2019-02-09T03:17:26.216Z,956.51
2019-02-09T03:18:26.148Z,956.49
2019-02-09T03:19:26.074Z,956.50
2019-02-09T03:20:26.017Z,956.41
2019-02-09T03:21:25.945Z,956.42
2019-02-09T03:22:25.873Z,956.43
2019-02-09T03:23:25.805Z,956.49
2019-02-09T03:24:25.737Z,956.52
2019-02-09T03:25:25.670Z,956.48
2019-02-09T03:26:25.602Z,956.54
2019-02-09T03:27:25.537Z,956.52
2019-02-09T03:28:25.470Z,956.53
2019-02-09T03:29:25.409Z,956.48
2019-02-09T03:30:25.328Z,956.45
2019-02-09T03:31:25.260Z,956.41
2019-02-09T03:32:25.283Z,956.40
2019-02-09T03:33:25.128Z,956.43
2019-02-09T03:34:25.052Z,956.46
2019-02-09T03:35:24.988Z,956.50
2019-02-09T03:36:24.918Z,956.50
2019-02-09T03:37:24.857Z,956.52
2019-02-09T03:38:24.782Z,956.56
2019-02-09T03:39:24.717Z,956.53
2019-02-09T03:40:24.668Z,956.48
2019-02-09T03:41:24.583Z,956.48
2019-02-09T03:42:24.517Z,956.45
2019-02-09T03:43:24.442Z,956.45
2019-02-09T03:44:24.398Z,956.42
2019-02-09T03:45:24.307Z,956.43
2019-02-09T03:46:24.245Z,956.40
2019-02-09T03:47:24.172Z,956.40
2019-02-09T03:48:24.119Z,956.33
2019-02-09T03:49:24.030Z,956.30
2019-02-09T03:50:23.968Z,956.32
2019-02-09T03:51:23.898Z,956.39
2019-02-09T03:52:23.831Z,956.40
2019-02-09T03:53:23.778Z,956.43
2019-02-09T03:54:23.702Z,956.44
2019-02-09T03:55:23.643Z,956.45
2019-02-09T03:56:23.560Z,956.48
2019-02-09T03:57:23.496Z,956.50
2019-02-09T03:58:23.424Z,956.54
2019-02-09T03:59:23.358Z,956.55
2019-02-09T04:00:23.286Z,956.60
2019-02-09T04:01:23.221Z,956.56
2019-02-09T04:02:23.149Z,956.53
2019-02-09T04:03:23.139Z,956.48
2019-02-09T04:04:23.014Z,956.46
2019-02-09T04:05:22.952Z,956.52
2019-02-09T04:06:22.885Z,956.47
2019-02-09T04:07:22.814Z,956.50
2019-02-09T04:08:22.746Z,956.46
2019-02-09T04:09:22.680Z,956.53
2019-02-09T04:10:22.618Z,956.36
2019-02-09T04:11:22.541Z,956.32
2019-02-09T04:12:22.471Z,956.31
2019-02-09T04:13:22.408Z,956.40
2019-02-09T04:14:22.340Z,956.38
2019-02-09T04:15:22.272Z,956.37
2019-02-09T04:16:22.205Z,956.40
2019-02-09T04:17:22.149Z,956.31
2019-02-09T04:18:22.070Z,956.30
2019-02-09T04:19:22.023Z,956.23
2019-02-09T04:20:21.939Z,956.31
2019-02-09T04:21:21.871Z,956.30
2019-02-09T04:22:21.796Z,956.28
2019-02-09T04:23:21.740Z,956.34
2019-02-09T04:24:21.660Z,956.27
2019-02-09T04:25:21.597Z,956.29
2019-02-09T04:26:21.523Z,956.25
2019-02-09T04:27:21.458Z,956.34
2019-02-09T04:28:21.391Z,956.36
2019-02-09T04:29:21.332Z,956.37
2019-02-09T04:30:21.263Z,956.30
2019-02-09T04:31:21.198Z,956.34
2019-02-09T04:32:21.131Z,956.32
2019-02-09T04:33:21.054Z,956.26
2019-02-09T04:34:20.984Z,956.32
2019-02-09T04:35:20.919Z,956.35
2019-02-09T04:36:20.862Z,956.43
2019-02-09T04:37:20.785Z,956.46
2019-02-09T04:38:20.727Z,956.48
2019-02-09T04:39:21.884Z,956.38
2019-02-09T04:40:20.586Z,956.38
2019-02-09T04:41:20.508Z,956.44
2019-02-09T04:42:20.450Z,956.37
2019-02-09T04:43:20.379Z,956.39
2019-02-09T04:44:20.309Z,956.42
2019-02-09T04:45:20.241Z,956.45
2019-02-09T04:46:20.174Z,956.48
2019-02-09T04:47:20.110Z,956.51
2019-02-09T04:48:20.037Z,956.51
2019-02-09T04:49:19.971Z,956.60
2019-02-09T04:50:19.905Z,956.68
2019-02-09T04:51:19.837Z,956.73
2019-02-09T04:52:19.772Z,956.68
2019-02-09T04:53:19.700Z,956.76
2019-02-09T04:54:19.640Z,956.74
2019-02-09T04:55:19.568Z,956.78
2019-02-09T04:56:19.499Z,956.80
2019-02-09T04:57:19.431Z,956.75
2019-02-09T04:58:19.365Z,956.83
2019-02-09T04:59:19.293Z,956.88
2019-02-09T05:00:19.241Z,956.84
2019-02-09T05:01:19.162Z,956.89
2019-02-09T05:02:19.095Z,956.87
2019-02-09T05:03:19.038Z,956.94
2019-02-09T05:04:18.960Z,956.91
2019-02-09T05:05:18.892Z,956.91
2019-02-09T05:06:18.827Z,956.93
2019-02-09T05:07:18.762Z,956.98
2019-02-09T05:08:18.692Z,956.99
2019-02-09T05:09:18.629Z,956.94
2019-02-09T05:10:18.552Z,956.97
2019-02-09T05:11:18.501Z,956.95
2019-02-09T05:12:18.425Z,957.03
2019-02-09T05:13:18.357Z,957.01
2019-02-09T05:14:18.293Z,957.02
2019-02-09T05:15:18.226Z,957.11
2019-02-09T05:16:18.175Z,957.19
2019-02-09T05:17:18.088Z,957.21
2019-02-09T05:18:18.024Z,957.22
2019-02-09T05:19:17.955Z,957.32
2019-02-09T05:20:17.891Z,957.42
2019-02-09T05:21:17.828Z,957.42
2019-02-09T05:22:17.767Z,957.57
2019-02-09T05:23:17.697Z,957.54
2019-02-09T05:24:17.619Z,957.45
2019-02-09T05:25:17.556Z,957.44
2019-02-09T05:26:17.489Z,957.44
2019-02-09T05:27:17.427Z,957.40
2019-02-09T05:28:17.358Z,957.39
2019-02-09T05:29:17.308Z,957.48
2019-02-09T05:30:17.223Z,957.58
2019-02-09T05:31:22.828Z,957.62
2019-02-09T05:32:17.104Z,957.55
2019-02-09T05:33:17.023Z,957.48
2019-02-09T05:34:16.960Z,957.47
2019-02-09T05:35:16.888Z,957.52
2019-02-09T05:36:16.826Z,957.56
2019-02-09T05:37:16.763Z,957.42
2019-02-09T05:38:16.697Z,957.51
2019-02-09T05:39:16.670Z,957.51
2019-02-09T05:40:16.564Z,957.46
2019-02-09T05:41:16.503Z,957.58
2019-02-09T05:42:16.422Z,957.47
2019-02-09T05:43:16.359Z,957.48
2019-02-09T05:44:16.309Z,957.51
2019-02-09T05:45:16.226Z,957.49
2019-02-09T05:46:16.159Z,957.47
2019-02-09T05:47:16.091Z,957.48
2019-02-09T05:48:16.027Z,957.49
2019-02-09T05:49:15.971Z,957.48
2019-02-09T05:50:15.898Z,957.48
2019-02-09T05:51:15.827Z,957.55
2019-02-09T05:52:15.767Z,957.57
2019-02-09T05:53:15.700Z,957.62
2019-02-09T05:54:15.633Z,957.70
2019-02-09T05:55:15.562Z,957.71
2019-02-09T05:56:15.495Z,957.80
2019-02-09T05:57:15.429Z,957.78
2019-02-09T05:58:15.366Z,957.81
2019-02-09T05:59:15.295Z,957.90
2019-02-09T06:00:15.232Z,957.84
2019-02-09T06:01:15.169Z,957.83
2019-02-09T06:02:15.109Z,957.78
2019-02-09T06:03:15.026Z,957.70
2019-02-09T06:04:14.965Z,957.73
2019-02-09T06:05:14.903Z,957.77
2019-02-09T06:06:14.832Z,957.72
2019-02-09T06:07:14.765Z,957.83
2019-02-09T06:08:14.702Z,957.86
2019-02-09T06:09:14.635Z,957.91
2019-02-09T06:10:14.563Z,957.91
2019-02-09T06:11:14.501Z,957.94
2019-02-09T06:12:14.435Z,957.89
2019-02-09T06:13:14.369Z,957.86
2019-02-09T06:14:14.303Z,957.93
2019-02-09T06:15:14.237Z,957.89
2019-02-09T06:16:14.174Z,957.91
2019-02-09T06:17:14.101Z,957.89
2019-02-09T06:18:14.037Z,957.96
2019-02-09T06:19:13.972Z,957.97
2019-02-09T06:20:13.906Z,958.03
2019-02-09T06:21:13.839Z,957.99
2019-02-09T06:22:13.771Z,957.97
2019-02-09T06:23:13.754Z,958.04
2019-02-09T06:24:13.636Z,958.02
2019-02-09T06:25:13.576Z,957.97
2019-02-09T06:26:13.508Z,957.97
2019-02-09T06:27:13.441Z,957.98
2019-02-09T06:28:13.379Z,958.00
2019-02-09T06:29:13.309Z,958.05
2019-02-09T06:30:13.242Z,958.16
2019-02-09T06:31:13.175Z,958.14
2019-02-09T06:32:13.114Z,958.17
2019-02-09T06:33:13.046Z,958.23
2019-02-09T06:34:12.983Z,958.18
2019-02-09T06:35:12.913Z,958.21
2019-02-09T06:36:12.851Z,958.29
2019-02-09T06:37:12.782Z,958.25
2019-02-09T06:38:12.710Z,958.32
2019-02-09T06:39:12.649Z,958.34
2019-02-09T06:40:12.583Z,958.31
2019-02-09T06:41:12.517Z,958.34
2019-02-09T06:42:12.451Z,958.33
2019-02-09T06:43:12.382Z,958.37
2019-02-09T06:44:12.330Z,958.28
2019-02-09T06:45:12.248Z,958.34
2019-02-09T06:46:12.184Z,958.31
2019-02-09T06:47:12.118Z,958.38
2019-02-09T06:48:12.052Z,958.36
2019-02-09T06:49:11.988Z,958.34
2019-02-09T06:50:11.925Z,958.43
2019-02-09T06:51:11.875Z,958.37
2019-02-09T06:52:11.785Z,958.48
2019-02-09T06:53:11.726Z,958.48
2019-02-09T06:54:11.653Z,958.52
2019-02-09T06:55:11.592Z,958.52
2019-02-09T06:56:11.524Z,958.51
2019-02-09T06:57:11.457Z,958.61
2019-02-09T06:58:11.397Z,958.59
2019-02-09T06:59:11.322Z,958.61
2019-02-09T07:00:11.258Z,958.61
2019-02-09T07:01:11.193Z,958.65
2019-02-09T07:02:11.126Z,958.73
2019-02-09T07:03:11.061Z,958.74
2019-02-09T07:04:10.996Z,958.71
2019-02-09T07:05:10.930Z,958.84
2019-02-09T07:06:10.857Z,958.93
2019-02-09T07:07:10.796Z,958.89
2019-02-09T07:08:10.731Z,958.95
2019-02-09T07:09:10.660Z,958.92
2019-02-09T07:10:10.593Z,958.95
2019-02-09T07:11:10.533Z,958.97
2019-02-09T07:12:10.466Z,958.88
2019-02-09T07:13:10.407Z,958.90
2019-02-09T07:14:10.333Z,958.97
2019-02-09T07:15:10.266Z,958.96
2019-02-09T07:16:10.201Z,958.92
2019-02-09T07:17:10.135Z,958.86
2019-02-09T07:18:10.069Z,958.86
2019-02-09T07:19:10.004Z,958.82
2019-02-09T07:20:09.961Z,958.81
2019-02-09T07:21:09.868Z,958.83
2019-02-09T07:22:09.830Z,958.77
2019-02-09T07:23:09.739Z,958.81
2019-02-09T07:24:09.671Z,958.79
2019-02-09T07:25:09.605Z,958.82
2019-02-09T07:26:09.544Z,958.82
2019-02-09T07:27:09.469Z,958.76
2019-02-09T07:28:09.407Z,958.72
2019-02-09T07:29:09.340Z,958.76
2019-02-09T07:30:09.275Z,958.79
2019-02-09T07:31:09.210Z,958.79
2019-02-09T07:32:09.145Z,958.84
2019-02-09T07:33:09.085Z,958.81
2019-02-09T07:34:09.005Z,958.79
2019-02-09T07:35:08.944Z,958.83
2019-02-09T07:36:08.885Z,958.67
2019-02-09T07:37:08.812Z,958.75
2019-02-09T07:38:08.748Z,958.73
2019-02-09T07:39:08.682Z,958.73
2019-02-09T07:40:08.625Z,958.76
2019-02-09T07:41:08.552Z,958.74
2019-02-09T07:42:08.480Z,958.76
2019-02-09T07:43:08.435Z,958.80
2019-02-09T07:44:08.350Z,958.82
2019-02-09T07:45:08.284Z,958.85
2019-02-09T07:46:08.218Z,958.87
2019-02-09T07:47:08.155Z,958.84
2019-02-09T07:48:08.082Z,958.93
2019-02-09T07:49:08.016Z,958.92
2019-02-09T07:50:07.967Z,958.96
2019-02-09T07:51:07.886Z,958.91
2019-02-09T07:52:07.819Z,958.88
2019-02-09T07:53:07.754Z,958.97
2019-02-09T07:54:07.688Z,958.91
2019-02-09T07:55:07.620Z,958.83
2019-02-09T07:56:07.557Z,958.96
2019-02-09T07:57:07.497Z,958.89
2019-02-09T07:58:07.425Z,958.90
2019-02-09T07:59:07.362Z,958.94
2019-02-09T08:00:07.300Z,958.92
2019-02-09T08:01:07.228Z,958.87
2019-02-09T08:02:07.158Z,958.86
2019-02-09T08:03:07.093Z,958.87
2019-02-09T08:04:07.049Z,958.84
2019-02-09T08:05:06.960Z,958.84
2019-02-09T08:06:06.895Z,958.89
2019-02-09T08:07:06.829Z,958.88
2019-02-09T08:08:06.767Z,958.82
2019-02-09T08:09:06.696Z,958.90
2019-02-09T08:10:06.645Z,958.96
2019-02-09T08:11:09.306Z,958.95
2019-02-09T08:12:06.510Z,958.94
2019-02-09T08:13:06.435Z,959.02
2019-02-09T08:14:06.368Z,959.00
2019-02-09T08:15:06.302Z,959.05
2019-02-09T08:16:06.241Z,959.04
2019-02-09T08:17:06.182Z,959.03
2019-02-09T08:18:06.107Z,959.10
2019-02-09T08:19:06.043Z,959.11
2019-02-09T08:20:05.973Z,959.06
2019-02-09T08:21:05.908Z,959.06
2019-02-09T08:22:05.889Z,959.09
2019-02-09T08:23:05.780Z,959.07
2019-02-09T08:24:07.313Z,959.08
2019-02-09T08:25:05.645Z,958.98
2019-02-09T08:26:05.574Z,959.04
2019-02-09T08:27:05.512Z,959.05
2019-02-09T08:28:05.447Z,959.01
2019-02-09T08:29:05.381Z,959.06
2019-02-09T08:30:05.315Z,959.11
2019-02-09T08:31:05.255Z,959.07
2019-02-09T08:32:12.295Z,959.17
2019-02-09T08:33:05.116Z,959.17
2019-02-09T08:34:05.052Z,959.19
2019-02-09T08:35:04.984Z,959.22
2019-02-09T08:36:04.921Z,959.20
2019-02-09T08:37:04.857Z,959.22
2019-02-09T08:38:04.791Z,959.23
2019-02-09T08:39:04.732Z,959.22
2019-02-09T08:40:04.657Z,959.27
2019-02-09T08:41:04.604Z,959.27
2019-02-09T08:42:04.538Z,959.23
2019-02-09T08:43:04.462Z,959.17
2019-02-09T08:44:04.399Z,959.22
2019-02-09T08:45:04.336Z,959.25
2019-02-09T08:46:04.269Z,959.21
2019-02-09T08:47:04.207Z,959.21
2019-02-09T08:48:04.142Z,959.15
2019-02-09T08:49:04.084Z,959.19
2019-02-09T08:50:04.004Z,959.35
2019-02-09T08:51:03.944Z,959.25
2019-02-09T08:52:03.876Z,959.23
2019-02-09T08:53:03.811Z,959.32
2019-02-09T08:54:03.741Z,959.33
2019-02-09T08:55:03.680Z,959.27
2019-02-09T08:56:03.625Z,959.25
2019-02-09T08:57:03.557Z,959.24
2019-02-09T08:58:03.502Z,959.32
2019-02-09T08:59:03.425Z,959.24
2019-02-09T09:00:03.352Z,959.36
2019-02-09T09:01:03.297Z,959.29
2019-02-09T09:02:03.222Z,959.35
2019-02-09T09:03:03.156Z,959.26
2019-02-09T09:04:03.098Z,959.33
2019-02-09T09:05:09.524Z,959.28
2019-02-09T09:06:02.964Z,959.34
2019-02-09T09:07:02.894Z,959.32
2019-02-09T09:08:02.839Z,959.24
2019-02-09T09:09:02.773Z,959.34
2019-02-09T09:10:02.708Z,959.27
2019-02-09T09:11:02.641Z,959.31
2019-02-09T09:12:02.574Z,959.35
2019-02-09T09:13:02.534Z,959.24
2019-02-09T09:14:02.446Z,959.32
2019-02-09T09:15:02.384Z,959.35
2019-02-09T09:16:02.319Z,959.23
2019-02-09T09:17:02.246Z,959.38
2019-02-09T09:18:02.185Z,959.36
2019-02-09T09:19:02.120Z,959.33
2019-02-09T09:20:02.058Z,959.40
2019-02-09T09:21:01.996Z,959.41
2019-02-09T09:22:01.925Z,959.43
2019-02-09T09:23:01.865Z,959.45
2019-02-09T09:24:01.799Z,959.38
2019-02-09T09:25:01.732Z,959.42
2019-02-09T09:26:01.673Z,959.50
2019-02-09T09:27:01.601Z,959.46
2019-02-09T09:28:01.540Z,959.55
2019-02-09T09:29:01.479Z,959.41
2019-02-09T09:30:01.410Z,959.46
2019-02-09T09:31:01.350Z,959.48
2019-02-09T09:32:01.277Z,959.48
2019-02-09T09:33:01.215Z,959.55
2019-02-09T09:34:01.151Z,959.54
2019-02-09T09:35:01.086Z,959.61
2019-02-09T09:36:01.035Z,959.56
2019-02-09T09:37:00.952Z,959.55
2019-02-09T09:38:00.893Z,959.62
2019-02-09T09:39:00.843Z,959.61
2019-02-09T09:40:00.829Z,959.65
2019-02-09T09:41:00.695Z,959.66
2019-02-09T09:42:00.631Z,959.62
2019-02-09T09:43:00.577Z,959.68
2019-02-09T09:44:00.510Z,959.67
2019-02-09T09:45:00.442Z,959.68
2019-02-09T09:46:00.369Z,959.66
2019-02-09T09:47:00.305Z,959.74
2019-02-09T09:48:00.245Z,959.74
2019-02-09T09:49:00.192Z,959.75
2019-02-09T09:50:00.255Z,959.83
2019-02-09T09:51:00.050Z,959.76
2019-02-09T09:51:59.984Z,959.80
2019-02-09T09:52:59.922Z,959.83
2019-02-09T09:53:59.867Z,959.76
2019-02-09T09:54:59.792Z,959.79
2019-02-09T09:55:59.730Z,959.84
2019-02-09T09:56:59.661Z,959.80
2019-02-09T09:57:59.608Z,959.89
2019-02-09T09:58:59.547Z,959.84
2019-02-09T09:59:59.475Z,959.89
2019-02-09T10:00:59.408Z,959.85
2019-02-09T10:01:59.348Z,959.84
2019-02-09T10:02:59.286Z,959.80
2019-02-09T10:03:59.213Z,959.86
2019-02-09T10:04:59.148Z,959.70
2019-02-09T10:05:59.083Z,959.77
2019-02-09T10:06:59.026Z,959.86
2019-02-09T10:07:58.954Z,959.78
2019-02-09T10:08:58.894Z,959.82
2019-02-09T10:09:58.820Z,959.83
2019-02-09T10:10:58.760Z,959.86
2019-02-09T10:11:58.710Z,959.80
2019-02-09T10:12:58.642Z,959.85
2019-02-09T10:13:58.565Z,959.79
2019-02-09T10:14:58.500Z,959.81
2019-02-09T10:15:58.443Z,959.80
2019-02-09T10:16:58.374Z,959.78
2019-02-09T10:17:58.308Z,959.79
2019-02-09T10:18:58.259Z,959.76
2019-02-09T10:19:58.179Z,959.74
2019-02-09T10:20:58.113Z,959.70
2019-02-09T10:21:58.049Z,959.70
2019-02-09T10:22:57.986Z,959.74
2019-02-09T10:23:57.920Z,959.70
2019-02-09T10:24:57.857Z,959.68
2019-02-09T10:25:57.791Z,959.74
2019-02-09T10:26:57.731Z,959.81
2019-02-09T10:27:57.665Z,959.78
2019-02-09T10:28:57.596Z,959.73
2019-02-09T10:29:57.528Z,959.77
2019-02-09T10:30:57.467Z,959.78
2019-02-09T10:31:57.405Z,959.84
2019-02-09T10:32:57.338Z,959.83
2019-02-09T10:33:57.272Z,959.82
2019-02-09T10:34:57.209Z,959.78
2019-02-09T10:35:57.144Z,959.73
2019-02-09T10:36:57.084Z,959.76
2019-02-09T10:37:57.023Z,959.80
2019-02-09T10:38:56.956Z,959.78
2019-02-09T10:39:56.885Z,959.85
2019-02-09T10:40:56.820Z,959.80
2019-02-09T10:41:56.756Z,959.75
2019-02-09T10:42:56.709Z,959.71
2019-02-09T10:43:56.635Z,959.76
2019-02-09T10:44:56.566Z,959.64
2019-02-09T10:45:56.500Z,959.65
2019-02-09T10:46:56.438Z,959.61
2019-02-09T10:47:56.369Z,959.61
2019-02-09T10:48:56.320Z,959.62
2019-02-09T10:49:56.240Z,959.56
2019-02-09T10:50:56.177Z,959.61
2019-02-09T10:51:56.111Z,959.63
2019-02-09T10:52:56.046Z,959.65
2019-02-09T10:53:55.983Z,959.67
2019-02-09T10:54:55.921Z,959.71
2019-02-09T10:55:55.857Z,959.57
2019-02-09T10:56:55.793Z,959.74
2019-02-09T10:57:55.727Z,959.70
2019-02-09T10:58:55.663Z,959.70
2019-02-09T10:59:55.606Z,959.76
2019-02-09T11:00:55.548Z,959.72
2019-02-09T11:01:55.480Z,959.71
2019-02-09T11:02:55.933Z,959.78
2019-02-09T11:03:55.340Z,959.84
2019-02-09T11:04:55.295Z,959.88
2019-02-09T11:05:55.217Z,959.92
2019-02-09T11:06:55.149Z,959.94
2019-02-09T11:07:55.084Z,959.90
2019-02-09T11:08:55.021Z,959.90
2019-02-09T11:09:54.963Z,959.91
2019-02-09T11:10:54.896Z,959.93
2019-02-09T11:11:54.831Z,959.89
2019-02-09T11:12:54.761Z,959.92
2019-02-09T11:13:54.713Z,959.98
2019-02-09T11:14:54.640Z,960.02
2019-02-09T11:15:54.569Z,959.97
2019-02-09T11:16:54.510Z,959.96
2019-02-09T11:17:54.443Z,959.94
2019-02-09T11:18:54.389Z,959.88
2019-02-09T11:19:54.319Z,959.92
2019-02-09T11:20:54.253Z,959.98
2019-02-09T11:21:54.190Z,960.02
2019-02-09T11:22:54.125Z,960.01
2019-02-09T11:23:54.063Z,959.99
2019-02-09T11:24:54.001Z,960.01
2019-02-09T11:25:53.933Z,960.07
2019-02-09T11:26:53.876Z,960.09
2019-02-09T11:27:53.807Z,960.09
2019-02-09T11:28:53.741Z,960.04
2019-02-09T11:29:53.682Z,960.00
2019-02-09T11:30:53.619Z,959.99
2019-02-09T11:31:53.562Z,959.91
2019-02-09T11:33:01.604Z,959.88
2019-02-09T11:33:53.424Z,959.85
2019-02-09T11:34:53.363Z,959.94
2019-02-09T11:35:53.296Z,959.90
2019-02-09T11:36:53.235Z,959.91
2019-02-09T11:37:53.168Z,959.97
2019-02-09T11:38:53.111Z,959.96
2019-02-09T11:39:53.045Z,960.02
2019-02-09T11:40:52.986Z,960.02
2019-02-09T11:41:52.916Z,960.08
2019-02-09T11:42:52.855Z,959.95
2019-02-09T11:43:52.802Z,960.00
2019-02-09T11:44:52.723Z,959.97
2019-02-09T11:45:52.661Z,959.91
2019-02-09T11:46:52.597Z,959.85
2019-02-09T11:47:52.537Z,959.79
2019-02-09T11:48:52.475Z,959.79
2019-02-09T11:49:52.404Z,959.79
2019-02-09T11:50:52.343Z,959.69
2019-02-09T11:51:52.281Z,959.78
2019-02-09T11:52:52.219Z,959.69
2019-02-09T11:53:52.160Z,959.73
2019-02-09T11:54:52.097Z,959.77
2019-02-09T11:55:52.025Z,959.84
2019-02-09T11:56:51.973Z,959.90
2019-02-09T11:57:51.895Z,959.88
2019-02-09T11:58:51.834Z,959.90
2019-02-09T11:59:51.780Z,959.81
2019-02-09T12:00:51.706Z,959.83
2019-02-09T12:01:51.998Z,959.78
2019-02-09T12:02:51.579Z,959.73
2019-02-09T12:03:51.520Z,959.75
2019-02-09T12:04:51.455Z,959.81
2019-02-09T12:05:51.394Z,959.77
2019-02-09T12:06:51.326Z,959.80
2019-02-09T12:07:51.267Z,959.83
2019-02-09T12:08:51.202Z,959.79
2019-02-09T12:09:51.135Z,959.85
2019-02-09T12:10:51.082Z,959.85
2019-02-09T12:11:51.020Z,959.80
2019-02-09T12:12:50.949Z,959.78
2019-02-09T12:13:55.396Z,959.72
2019-02-09T12:14:50.821Z,959.81
2019-02-09T12:15:50.766Z,959.81
2019-02-09T12:16:50.695Z,959.87
2019-02-09T12:17:50.633Z,959.81
2019-02-09T12:18:50.568Z,959.88
2019-02-09T12:19:50.505Z,959.78
2019-02-09T12:20:50.439Z,959.90
2019-02-09T12:21:50.377Z,959.76
2019-02-09T12:22:50.317Z,959.76
2019-02-09T12:23:50.258Z,959.78
2019-02-09T12:24:50.189Z,959.77
2019-02-09T12:25:50.123Z,959.79
2019-02-09T12:26:50.068Z,959.77
2019-02-09T12:27:50.002Z,959.76